sensor_id;sensor_type;location;lat;lon;timestamp;temperature;humidity
55365;DHT22;41245;45.384;20.390;2023-03-05T00:00:51;179.40;2252.80
55365;DHT22;41245;45.384;20.390;2023-03-05T00:03:16;179.30;2252.80
55365;DHT22;41245;45.384;20.390;2023-03-05T00:05:42;179.20;2252.80
55365;DHT22;41245;45.384;20.390;2023-03-05T00:22:44;154.20;2252.80
55365;DHT22;41245;45.384;20.390;2023-03-05T00:27:35;154.00;2252.80
55365;DHT22;41245;45.384;20.390;2023-03-05T00:30:01;153.80;2252.80
55365;DHT22;41245;45.384;20.390;2023-03-05T00:34:53;153.70;2252.80
55365;DHT22;41245;45.384;20.390;2023-03-05T00:37:18;153.60;2252.80
55365;DHT22;41245;45.384;20.390;2023-03-05T00:39:44;128.80;2252.80
55365;DHT22;41245;45.384;20.390;2023-03-05T00:42:09;128.80;2252.80
55365;DHT22;41245;45.384;20.390;2023-03-05T00:44:35;128.70;2252.80
55365;DHT22;41245;45.384;20.390;2023-03-05T00:47:01;128.70;2252.80
55365;DHT22;41245;45.384;20.390;2023-03-05T00:49:26;128.70;2252.80
55365;DHT22;41245;45.384;20.390;2023-03-05T00:51:52;128.70;2252.80
55365;DHT22;41245;45.384;20.390;2023-03-05T00:54:18;128.60;2252.80
55365;DHT22;41245;45.384;20.390;2023-03-05T00:56:44;128.60;2252.80
55365;DHT22;41245;45.384;20.390;2023-03-05T00:59:09;128.60;2252.80
55365;DHT22;41245;45.384;20.390;2023-03-05T01:01:35;128.50;2252.80
55365;DHT22;41245;45.384;20.390;2023-03-05T01:04:01;128.40;2252.80
55365;DHT22;41245;45.384;20.390;2023-03-05T01:06:27;128.30;2252.80
55365;DHT22;41245;45.384;20.390;2023-03-05T01:08:53;128.30;2252.80
55365;DHT22;41245;45.384;20.390;2023-03-05T01:11:19;128.30;2252.80
55365;DHT22;41245;45.384;20.390;2023-03-05T01:13:44;128.20;2252.80
55365;DHT22;41245;45.384;20.390;2023-03-05T01:16:10;128.20;2252.80
55365;DHT22;41245;45.384;20.390;2023-03-05T01:18:37;128.20;2252.80
55365;DHT22;41245;45.384;20.390;2023-03-05T01:21:03;128.20;2252.80
55365;DHT22;41245;45.384;20.390;2023-03-05T01:23:28;128.10;2252.80
55365;DHT22;41245;45.384;20.390;2023-03-05T01:25:56;128.10;2252.80
55365;DHT22;41245;45.384;20.390;2023-03-05T01:28:22;128.10;2252.80
55365;DHT22;41245;45.384;20.390;2023-03-05T01:30:48;128.10;2252.80
55365;DHT22;41245;45.384;20.390;2023-03-05T01:33:13;128.10;2252.80
55365;DHT22;41245;45.384;20.390;2023-03-05T01:35:39;128.10;2252.80
55365;DHT22;41245;45.384;20.390;2023-03-05T01:38:05;128.10;2252.80
55365;DHT22;41245;45.384;20.390;2023-03-05T01:40:31;128.00;2252.80
55365;DHT22;41245;45.384;20.390;2023-03-05T01:43:14;128.00;2252.80
55365;DHT22;41245;45.384;20.390;2023-03-05T01:48:49;128.00;2252.80
55365;DHT22;41245;45.384;20.390;2023-03-05T01:51:18;128.00;2252.80
55365;DHT22;41245;45.384;20.390;2023-03-05T01:53:45;103.30;2227.20
55365;DHT22;41245;45.384;20.390;2023-03-05T01:56:11;103.20;2227.20
55365;DHT22;41245;45.384;20.390;2023-03-05T01:58:37;103.20;2227.20
55365;DHT22;41245;45.384;20.390;2023-03-05T02:01:04;103.20;2227.20
55365;DHT22;41245;45.384;20.390;2023-03-05T02:03:30;103.10;2227.20
55365;DHT22;41245;45.384;20.390;2023-03-05T02:05:57;103.10;2227.20
55365;DHT22;41245;45.384;20.390;2023-03-05T02:08:22;103.00;2227.20
55365;DHT22;41245;45.384;20.390;2023-03-05T02:10:50;102.90;2227.20
55365;DHT22;41245;45.384;20.390;2023-03-05T02:13:20;102.90;2227.20
55365;DHT22;41245;45.384;20.390;2023-03-05T02:15:47;102.80;2227.20
55365;DHT22;41245;45.384;20.390;2023-03-05T02:18:15;102.70;2227.20
55365;DHT22;41245;45.384;20.390;2023-03-05T02:23:15;102.70;2227.20
55365;DHT22;41245;45.384;20.390;2023-03-05T02:25:41;102.70;2227.20
55365;DHT22;41245;45.384;20.390;2023-03-05T02:52:45;102.70;2227.20
55365;DHT22;41245;45.384;20.390;2023-03-05T02:55:11;102.60;2227.20
55365;DHT22;41245;45.384;20.390;2023-03-05T02:57:37;102.60;2227.20
55365;DHT22;41245;45.384;20.390;2023-03-05T03:00:04;102.50;2227.20
55365;DHT22;41245;45.384;20.390;2023-03-05T03:02:30;102.50;2227.20
55365;DHT22;41245;45.384;20.390;2023-03-05T03:04:55;102.60;2227.20
55365;DHT22;41245;45.384;20.390;2023-03-05T03:07:21;102.50;2227.20
55365;DHT22;41245;45.384;20.390;2023-03-05T03:09:47;102.50;2227.20
55365;DHT22;41245;45.384;20.390;2023-03-05T03:12:12;102.50;2227.20
55365;DHT22;41245;45.384;20.390;2023-03-05T03:14:40;102.40;2227.20
55365;DHT22;41245;45.384;20.390;2023-03-05T03:17:11;102.40;2227.20
55365;DHT22;41245;45.384;20.390;2023-03-05T03:19:38;102.40;2227.20
55365;DHT22;41245;45.384;20.390;2023-03-05T04:32:56;77.40;2227.20
55365;DHT22;41245;45.384;20.390;2023-03-05T04:35:21;77.30;2227.20
55365;DHT22;41245;45.384;20.390;2023-03-05T04:37:47;77.30;2227.20
55365;DHT22;41245;45.384;20.390;2023-03-05T04:40:13;77.30;2227.20
55365;DHT22;41245;45.384;20.390;2023-03-05T04:42:39;77.30;2227.20
55365;DHT22;41245;45.384;20.390;2023-03-05T04:45:05;77.30;2227.20
55365;DHT22;41245;45.384;20.390;2023-03-05T04:47:32;77.30;2227.20
55365;DHT22;41245;45.384;20.390;2023-03-05T04:49:57;77.20;2227.20
55365;DHT22;41245;45.384;20.390;2023-03-05T04:52:23;77.20;2227.20
55365;DHT22;41245;45.384;20.390;2023-03-05T04:54:49;77.10;2227.20
55365;DHT22;41245;45.384;20.390;2023-03-05T04:57:15;77.10;2227.20
55365;DHT22;41245;45.384;20.390;2023-03-05T04:59:41;77.00;2227.20
55365;DHT22;41245;45.384;20.390;2023-03-05T05:02:06;77.10;2227.20
55365;DHT22;41245;45.384;20.390;2023-03-05T05:04:32;77.10;2227.20
55365;DHT22;41245;45.384;20.390;2023-03-05T05:06:58;77.10;2227.20
55365;DHT22;41245;45.384;20.390;2023-03-05T05:09:24;77.10;2227.20
55365;DHT22;41245;45.384;20.390;2023-03-05T05:11:50;77.10;2227.20
55365;DHT22;41245;45.384;20.390;2023-03-05T05:14:17;77.10;2227.20
55365;DHT22;41245;45.384;20.390;2023-03-05T05:16:42;77.10;2227.20
55365;DHT22;41245;45.384;20.390;2023-03-05T05:19:08;77.10;2227.20
55365;DHT22;41245;45.384;20.390;2023-03-05T05:21:34;77.20;2227.20
55365;DHT22;41245;45.384;20.390;2023-03-05T05:23:59;77.20;2227.20
55365;DHT22;41245;45.384;20.390;2023-03-05T05:26:25;77.20;2227.20
55365;DHT22;41245;45.384;20.390;2023-03-05T05:28:51;77.20;2227.20
55365;DHT22;41245;45.384;20.390;2023-03-05T05:31:17;77.30;2227.20
55365;DHT22;41245;45.384;20.390;2023-03-05T05:33:43;77.30;2227.20
55365;DHT22;41245;45.384;20.390;2023-03-05T05:36:12;77.30;2227.20
55365;DHT22;41245;45.384;20.390;2023-03-05T05:38:38;77.50;2227.20
55365;DHT22;41245;45.384;20.390;2023-03-05T05:41:09;77.40;2227.20
55365;DHT22;41245;45.384;20.390;2023-03-05T05:43:36;77.50;2227.20
55365;DHT22;41245;45.384;20.390;2023-03-05T05:46:04;77.50;2227.20
55365;DHT22;41245;45.384;20.390;2023-03-05T05:48:32;77.60;2227.20
55365;DHT22;41245;45.384;20.390;2023-03-05T05:50:59;77.60;2227.20
55365;DHT22;41245;45.384;20.390;2023-03-05T05:53:28;77.60;2227.20
55365;DHT22;41245;45.384;20.390;2023-03-05T05:55:54;77.70;2227.20
55365;DHT22;41245;45.384;20.390;2023-03-05T05:58:20;102.40;2227.20
55365;DHT22;41245;45.384;20.390;2023-03-05T06:00:45;102.40;2227.20
55365;DHT22;41245;45.384;20.390;2023-03-05T06:03:11;102.50;2227.20
55365;DHT22;41245;45.384;20.390;2023-03-05T06:05:37;102.50;2227.20
55365;DHT22;41245;45.384;20.390;2023-03-05T06:12:54;102.90;2227.20
55365;DHT22;41245;45.384;20.390;2023-03-05T06:15:20;102.70;2227.20
55365;DHT22;41245;45.384;20.390;2023-03-05T06:17:46;102.80;2227.20
55365;DHT22;41245;45.384;20.390;2023-03-05T06:20:13;102.80;2227.20
55365;DHT22;41245;45.384;20.390;2023-03-05T06:22:38;102.80;2227.20
55365;DHT22;41245;45.384;20.390;2023-03-05T06:25:06;102.80;2227.20
55365;DHT22;41245;45.384;20.390;2023-03-05T06:27:34;102.90;2227.20
55365;DHT22;41245;45.384;20.390;2023-03-05T06:29:59;103.00;2227.20
55365;DHT22;41245;45.384;20.390;2023-03-05T06:32:25;103.00;2227.20
55365;DHT22;41245;45.384;20.390;2023-03-05T06:34:51;103.10;2227.20
55365;DHT22;41245;45.384;20.390;2023-03-05T06:37:17;103.20;2227.20
55365;DHT22;41245;45.384;20.390;2023-03-05T06:39:43;103.30;2227.20
55365;DHT22;41245;45.384;20.390;2023-03-05T06:42:09;103.30;2227.20
55365;DHT22;41245;45.384;20.390;2023-03-05T06:44:38;128.00;2252.80
55365;DHT22;41245;45.384;20.390;2023-03-05T06:47:04;128.00;2252.80
55365;DHT22;41245;45.384;20.390;2023-03-05T06:49:30;128.10;2252.80
55365;DHT22;41245;45.384;20.390;2023-03-05T06:51:56;128.20;2252.80
55365;DHT22;41245;45.384;20.390;2023-03-05T06:54:21;128.30;2252.80
55365;DHT22;41245;45.384;20.390;2023-03-05T06:56:47;128.40;2252.80
55365;DHT22;41245;45.384;20.390;2023-03-05T06:59:14;128.50;2252.80
55365;DHT22;41245;45.384;20.390;2023-03-05T07:01:41;128.50;2252.80
55365;DHT22;41245;45.384;20.390;2023-03-05T07:04:07;128.60;2252.80
55365;DHT22;41245;45.384;20.390;2023-03-05T07:06:34;128.80;2252.80
55365;DHT22;41245;45.384;20.390;2023-03-05T07:09:02;128.80;2252.80
55365;DHT22;41245;45.384;20.390;2023-03-05T07:11:28;128.90;2252.80
55365;DHT22;41245;45.384;20.390;2023-03-05T07:13:54;153.70;2252.80
55365;DHT22;41245;45.384;20.390;2023-03-05T07:16:25;153.80;2252.80
55365;DHT22;41245;45.384;20.390;2023-03-05T07:18:52;153.90;2252.80
55365;DHT22;41245;45.384;20.390;2023-03-05T07:21:24;154.00;2252.80
55365;DHT22;41245;45.384;20.390;2023-03-05T07:23:52;154.00;2252.80
55365;DHT22;41245;45.384;20.390;2023-03-05T07:26:18;154.20;2252.80
55365;DHT22;41245;45.384;20.390;2023-03-05T07:28:44;154.20;2252.80
55365;DHT22;41245;45.384;20.390;2023-03-05T07:31:13;154.30;2252.80
55365;DHT22;41245;45.384;20.390;2023-03-05T07:33:39;154.30;2252.80
55365;DHT22;41245;45.384;20.390;2023-03-05T07:36:08;154.40;2252.80
55365;DHT22;41245;45.384;20.390;2023-03-05T07:38:34;154.50;2252.80
55365;DHT22;41245;45.384;20.390;2023-03-05T07:45:55;179.40;2252.80
55365;DHT22;41245;45.384;20.390;2023-03-05T07:48:23;179.40;2252.80
55365;DHT22;41245;45.384;20.390;2023-03-05T07:50:49;179.50;2252.80
55365;DHT22;41245;45.384;20.390;2023-03-05T07:53:15;179.60;2252.80
55365;DHT22;41245;45.384;20.390;2023-03-05T07:55:45;179.80;2252.80
55365;DHT22;41245;45.384;20.390;2023-03-05T08:00:37;205.00;2252.80
55365;DHT22;41245;45.384;20.390;2023-03-05T08:25:02;205.60;2252.80
55365;DHT22;41245;45.384;20.390;2023-03-05T08:32:20;205.60;2252.80
55365;DHT22;41245;45.384;20.390;2023-03-05T08:34:46;205.60;2252.80
55365;DHT22;41245;45.384;20.390;2023-03-05T08:37:12;205.60;2252.80
55365;DHT22;41245;45.384;20.390;2023-03-05T09:03:59;230.90;2252.80
55365;DHT22;41245;45.384;20.390;2023-03-05T09:08:51;231.10;2252.80
55365;DHT22;41245;45.384;20.390;2023-03-05T09:11:17;231.00;2252.80
55365;DHT22;41245;45.384;20.390;2023-03-05T09:13:43;230.90;2252.80
55365;DHT22;41245;45.384;20.390;2023-03-05T09:16:12;231.00;2252.80
55365;DHT22;41245;45.384;20.390;2023-03-05T09:18:38;231.10;2252.80
55365;DHT22;41245;45.384;20.390;2023-03-05T09:21:13;231.10;2252.80
55365;DHT22;41245;45.384;20.390;2023-03-05T09:23:40;231.20;2252.80
55365;DHT22;41245;45.384;20.390;2023-03-05T09:26:10;231.10;2252.80
55365;DHT22;41245;45.384;20.390;2023-03-05T09:28:38;231.10;2252.80
55365;DHT22;41245;45.384;20.390;2023-03-05T09:31:05;231.20;2252.80
55365;DHT22;41245;45.384;20.390;2023-03-05T09:33:32;231.30;2252.80
55365;DHT22;41245;45.384;20.390;2023-03-05T09:35:59;231.30;2252.80
55365;DHT22;41245;45.384;20.390;2023-03-05T09:38:24;256.20;2252.80
55365;DHT22;41245;45.384;20.390;2023-03-05T09:41:01;256.30;2252.80
55365;DHT22;41245;45.384;20.390;2023-03-05T09:43:46;256.30;2252.80
55365;DHT22;41245;45.384;20.390;2023-03-05T09:51:34;256.40;2252.80
55365;DHT22;41245;45.384;20.390;2023-03-05T09:54:05;256.50;2252.80
55365;DHT22;41245;45.384;20.390;2023-03-05T09:56:40;256.60;2252.80
55365;DHT22;41245;45.384;20.390;2023-03-05T09:59:18;256.60;2252.80
55365;DHT22;41245;45.384;20.390;2023-03-05T10:01:46;256.70;2252.80
55365;DHT22;41245;45.384;20.390;2023-03-05T10:12:37;256.60;2252.80
55365;DHT22;41245;45.384;20.390;2023-03-05T10:15:27;256.60;2252.80
55365;DHT22;41245;45.384;20.390;2023-03-05T10:21:34;256.80;2252.80
55365;DHT22;41245;45.384;20.390;2023-03-05T10:24:41;256.60;2252.80
55365;DHT22;41245;45.384;20.390;2023-03-05T10:27:19;256.60;2252.80
55365;DHT22;41245;45.384;20.390;2023-03-05T10:30:02;256.80;2252.80
55365;DHT22;41245;45.384;20.390;2023-03-05T10:32:42;256.70;2252.80
55365;DHT22;41245;45.384;20.390;2023-03-05T10:35:23;256.40;2252.80
55365;DHT22;41245;45.384;20.390;2023-03-05T10:40:57;256.90;2252.80
55365;DHT22;41245;45.384;20.390;2023-03-05T10:44:04;281.70;2278.40
55365;DHT22;41245;45.384;20.390;2023-03-05T10:46:35;281.90;2278.40
55365;DHT22;41245;45.384;20.390;2023-03-05T10:49:19;281.90;2278.40
55365;DHT22;41245;45.384;20.390;2023-03-05T10:54:29;307.20;2304.00
55365;DHT22;41245;45.384;20.390;2023-03-05T10:57:15;307.20;2304.00
55365;DHT22;41245;45.384;20.390;2023-03-05T10:59:53;307.70;2304.00
55365;DHT22;41245;45.384;20.390;2023-03-05T11:02:22;307.80;2304.00
55365;DHT22;41245;45.384;20.390;2023-03-05T11:09:41;282.20;2278.40
55365;DHT22;41245;45.384;20.390;2023-03-05T11:12:16;282.20;2278.40
55365;DHT22;41245;45.384;20.390;2023-03-05T11:20:26;282.50;2278.40
55365;DHT22;41245;45.384;20.390;2023-03-05T11:23:09;282.20;2278.40
55365;DHT22;41245;45.384;20.390;2023-03-05T11:25:56;281.90;2278.40
55365;DHT22;41245;45.384;20.390;2023-03-05T11:28:26;282.10;2278.40
55365;DHT22;41245;45.384;20.390;2023-03-05T11:31:42;282.50;2278.40
55365;DHT22;41245;45.384;20.390;2023-03-05T11:34:03;307.20;2304.00
55365;DHT22;41245;45.384;20.390;2023-03-05T11:36:42;307.60;2304.00
55365;DHT22;41245;45.384;20.390;2023-03-05T11:39:13;307.20;2304.00
55365;DHT22;41245;45.384;20.390;2023-03-05T11:41:48;307.30;2304.00
55365;DHT22;41245;45.384;20.390;2023-03-05T11:44:20;307.50;2304.00
55365;DHT22;41245;45.384;20.390;2023-03-05T11:46:50;307.60;2304.00
55365;DHT22;41245;45.384;20.390;2023-03-05T11:49:20;333.00;2329.60
55365;DHT22;41245;45.384;20.390;2023-03-05T11:54:24;333.30;2329.60
55365;DHT22;41245;45.384;20.390;2023-03-05T11:56:51;333.10;2329.60
55365;DHT22;41245;45.384;20.390;2023-03-05T11:59:29;333.20;2329.60
55365;DHT22;41245;45.384;20.390;2023-03-05T12:01:56;333.00;2329.60
55365;DHT22;41245;45.384;20.390;2023-03-05T12:04:23;332.80;2329.60
55365;DHT22;41245;45.384;20.390;2023-03-05T12:06:57;308.10;2304.00
55365;DHT22;41245;45.384;20.390;2023-03-05T12:09:40;307.90;2304.00
55365;DHT22;41245;45.384;20.390;2023-03-05T12:21:02;307.70;2304.00
55365;DHT22;41245;45.384;20.390;2023-03-05T12:23:47;307.80;2304.00
55365;DHT22;41245;45.384;20.390;2023-03-05T12:26:14;308.10;2304.00
55365;DHT22;41245;45.384;20.390;2023-03-05T12:31:36;332.90;2329.60
55365;DHT22;41245;45.384;20.390;2023-03-05T12:40:01;307.80;2304.00
55365;DHT22;41245;45.384;20.390;2023-03-05T12:47:43;307.60;2304.00
55365;DHT22;41245;45.384;20.390;2023-03-05T12:52:57;307.40;2304.00
55365;DHT22;41245;45.384;20.390;2023-03-05T12:55:30;307.60;2304.00
55365;DHT22;41245;45.384;20.390;2023-03-05T12:58:04;307.50;2304.00
55365;DHT22;41245;45.384;20.390;2023-03-05T13:00:41;307.60;2304.00
55365;DHT22;41245;45.384;20.390;2023-03-05T13:03:23;307.70;2304.00
55365;DHT22;41245;45.384;20.390;2023-03-05T13:05:53;307.80;2304.00
55365;DHT22;41245;45.384;20.390;2023-03-05T13:10:54;307.90;2304.00
55365;DHT22;41245;45.384;20.390;2023-03-05T13:13:21;307.60;2304.00
55365;DHT22;41245;45.384;20.390;2023-03-05T13:15:49;307.60;2304.00
55365;DHT22;41245;45.384;20.390;2023-03-05T13:18:29;307.80;2304.00
55365;DHT22;41245;45.384;20.390;2023-03-05T13:23:31;307.70;2304.00
55365;DHT22;41245;45.384;20.390;2023-03-05T13:26:17;307.60;2304.00
55365;DHT22;41245;45.384;20.390;2023-03-05T13:31:31;307.40;2304.00
55365;DHT22;41245;45.384;20.390;2023-03-05T13:34:07;307.20;2304.00
55365;DHT22;41245;45.384;20.390;2023-03-05T13:36:33;282.50;2278.40
55365;DHT22;41245;45.384;20.390;2023-03-05T13:38:59;307.20;2304.00
55365;DHT22;41245;45.384;20.390;2023-03-05T13:41:28;282.40;2278.40
55365;DHT22;41245;45.384;20.390;2023-03-05T13:43:57;282.40;2278.40
55365;DHT22;41245;45.384;20.390;2023-03-05T13:46:38;282.40;2278.40
55365;DHT22;41245;45.384;20.390;2023-03-05T13:52:01;307.20;2304.00
55365;DHT22;41245;45.384;20.390;2023-03-05T13:54:27;282.50;2278.40
55365;DHT22;41245;45.384;20.390;2023-03-05T13:56:54;307.20;2304.00
55365;DHT22;41245;45.384;20.390;2023-03-05T13:59:23;307.20;2304.00
55365;DHT22;41245;45.384;20.390;2023-03-05T14:01:49;307.30;2304.00
55365;DHT22;41245;45.384;20.390;2023-03-05T14:04:22;307.40;2304.00
55365;DHT22;41245;45.384;20.390;2023-03-05T14:06:55;307.20;2304.00
55365;DHT22;41245;45.384;20.390;2023-03-05T14:14:28;307.40;2304.00
55365;DHT22;41245;45.384;20.390;2023-03-05T14:16:53;307.20;2304.00
55365;DHT22;41245;45.384;20.390;2023-03-05T14:19:36;307.20;2304.00
55365;DHT22;41245;45.384;20.390;2023-03-05T14:22:04;282.50;2278.40
55365;DHT22;41245;45.384;20.390;2023-03-05T14:24:30;282.20;2278.40
55365;DHT22;41245;45.384;20.390;2023-03-05T14:27:04;282.20;2278.40
55365;DHT22;41245;45.384;20.390;2023-03-05T14:29:33;282.10;2278.40
55365;DHT22;41245;45.384;20.390;2023-03-05T14:32:04;282.20;2278.40
55365;DHT22;41245;45.384;20.390;2023-03-05T14:34:36;282.10;2278.40
55365;DHT22;41245;45.384;20.390;2023-03-05T14:37:23;282.10;2278.40
55365;DHT22;41245;45.384;20.390;2023-03-05T14:39:58;282.10;2278.40
55365;DHT22;41245;45.384;20.390;2023-03-05T14:42:30;282.30;2278.40
55365;DHT22;41245;45.384;20.390;2023-03-05T14:44:59;282.40;2278.40
55365;DHT22;41245;45.384;20.390;2023-03-05T14:47:26;282.50;2278.40
55365;DHT22;41245;45.384;20.390;2023-03-05T14:49:51;282.40;2278.40
55365;DHT22;41245;45.384;20.390;2023-03-05T14:52:19;282.30;2278.40
55365;DHT22;41245;45.384;20.390;2023-03-05T14:54:45;282.20;2278.40
55365;DHT22;41245;45.384;20.390;2023-03-05T14:57:18;282.20;2278.40
55365;DHT22;41245;45.384;20.390;2023-03-05T14:59:44;282.20;2278.40
55365;DHT22;41245;45.384;20.390;2023-03-05T15:02:15;282.10;2278.40
55365;DHT22;41245;45.384;20.390;2023-03-05T15:04:41;282.10;2278.40
55365;DHT22;41245;45.384;20.390;2023-03-05T15:07:15;282.10;2278.40
55365;DHT22;41245;45.384;20.390;2023-03-05T15:09:41;282.10;2278.40
55365;DHT22;41245;45.384;20.390;2023-03-05T15:12:07;282.10;2278.40
55365;DHT22;41245;45.384;20.390;2023-03-05T15:14:33;282.10;2278.40
55365;DHT22;41245;45.384;20.390;2023-03-05T15:16:59;282.10;2278.40
55365;DHT22;41245;45.384;20.390;2023-03-05T15:19:24;282.10;2278.40
55365;DHT22;41245;45.384;20.390;2023-03-05T15:21:50;281.90;2278.40
55365;DHT22;41245;45.384;20.390;2023-03-05T15:24:16;281.80;2278.40
55365;DHT22;41245;45.384;20.390;2023-03-05T15:26:41;281.70;2278.40
55365;DHT22;41245;45.384;20.390;2023-03-05T15:29:07;281.70;2278.40
55365;DHT22;41245;45.384;20.390;2023-03-05T15:31:32;281.70;2278.40
55365;DHT22;41245;45.384;20.390;2023-03-05T15:34:03;256.90;2252.80
55365;DHT22;41245;45.384;20.390;2023-03-05T15:36:29;256.80;2252.80
55365;DHT22;41245;45.384;20.390;2023-03-05T15:38:54;256.70;2252.80
55365;DHT22;41245;45.384;20.390;2023-03-05T15:41:20;256.60;2252.80
55365;DHT22;41245;45.384;20.390;2023-03-05T15:43:46;256.60;2252.80
55365;DHT22;41245;45.384;20.390;2023-03-05T15:46:12;256.60;2252.80
55365;DHT22;41245;45.384;20.390;2023-03-05T15:48:37;256.60;2252.80
55365;DHT22;41245;45.384;20.390;2023-03-05T15:51:06;256.60;2252.80
55365;DHT22;41245;45.384;20.390;2023-03-05T15:53:32;256.60;2252.80
55365;DHT22;41245;45.384;20.390;2023-03-05T15:55:58;256.60;2252.80
55365;DHT22;41245;45.384;20.390;2023-03-05T15:58:23;256.60;2252.80
55365;DHT22;41245;45.384;20.390;2023-03-05T16:00:49;256.60;2252.80
55365;DHT22;41245;45.384;20.390;2023-03-05T16:03:15;256.40;2252.80
55365;DHT22;41245;45.384;20.390;2023-03-05T16:05:40;256.40;2252.80
55365;DHT22;41245;45.384;20.390;2023-03-05T16:08:06;256.40;2252.80
55365;DHT22;41245;45.384;20.390;2023-03-05T16:10:32;256.40;2252.80
55365;DHT22;41245;45.384;20.390;2023-03-05T16:13:06;256.40;2252.80
55365;DHT22;41245;45.384;20.390;2023-03-05T16:15:32;256.40;2252.80
55365;DHT22;41245;45.384;20.390;2023-03-05T16:18:02;256.40;2252.80
55365;DHT22;41245;45.384;20.390;2023-03-05T16:20:28;256.40;2252.80
55365;DHT22;41245;45.384;20.390;2023-03-05T16:22:54;256.40;2252.80
55365;DHT22;41245;45.384;20.390;2023-03-05T16:25:20;256.30;2252.80
55365;DHT22;41245;45.384;20.390;2023-03-05T16:27:46;256.30;2252.80
55365;DHT22;41245;45.384;20.390;2023-03-05T16:30:13;256.30;2252.80
55365;DHT22;41245;45.384;20.390;2023-03-05T16:32:39;256.30;2252.80
55365;DHT22;41245;45.384;20.390;2023-03-05T16:35:05;256.20;2252.80
55365;DHT22;41245;45.384;20.390;2023-03-05T16:37:31;256.30;2252.80
55365;DHT22;41245;45.384;20.390;2023-03-05T16:39:57;256.20;2252.80
55365;DHT22;41245;45.384;20.390;2023-03-05T16:42:24;256.20;2252.80
55365;DHT22;41245;45.384;20.390;2023-03-05T16:44:49;256.10;2252.80
55365;DHT22;41245;45.384;20.390;2023-03-05T16:47:16;256.10;2252.80
55365;DHT22;41245;45.384;20.390;2023-03-05T16:49:42;256.10;2252.80
55365;DHT22;41245;45.384;20.390;2023-03-05T16:52:08;256.00;2252.80
55365;DHT22;41245;45.384;20.390;2023-03-05T16:54:36;256.00;2252.80
55365;DHT22;41245;45.384;20.390;2023-03-05T16:57:01;256.00;2252.80
55365;DHT22;41245;45.384;20.390;2023-03-05T16:59:27;256.00;2252.80
55365;DHT22;41245;45.384;20.390;2023-03-05T17:01:53;256.00;2252.80
55365;DHT22;41245;45.384;20.390;2023-03-05T17:04:19;256.00;2252.80
55365;DHT22;41245;45.384;20.390;2023-03-05T17:06:46;256.00;2252.80
55365;DHT22;41245;45.384;20.390;2023-03-05T17:09:12;256.00;2252.80
55365;DHT22;41245;45.384;20.390;2023-03-05T17:11:37;256.00;2252.80
55365;DHT22;41245;45.384;20.390;2023-03-05T17:14:03;256.00;2252.80
55365;DHT22;41245;45.384;20.390;2023-03-05T17:16:29;231.30;2252.80
55365;DHT22;41245;45.384;20.390;2023-03-05T17:18:55;231.30;2252.80
55365;DHT22;41245;45.384;20.390;2023-03-05T17:21:20;231.30;2252.80
55365;DHT22;41245;45.384;20.390;2023-03-05T17:23:46;231.30;2252.80
55365;DHT22;41245;45.384;20.390;2023-03-05T17:26:15;231.30;2252.80
55365;DHT22;41245;45.384;20.390;2023-03-05T17:28:42;231.30;2252.80
55365;DHT22;41245;45.384;20.390;2023-03-05T17:31:08;231.30;2252.80
55365;DHT22;41245;45.384;20.390;2023-03-05T17:33:35;231.30;2252.80
55365;DHT22;41245;45.384;20.390;2023-03-05T17:36:02;231.20;2252.80
55365;DHT22;41245;45.384;20.390;2023-03-05T17:38:28;231.20;2252.80
55365;DHT22;41245;45.384;20.390;2023-03-05T17:40:54;231.10;2252.80
55365;DHT22;41245;45.384;20.390;2023-03-05T17:43:20;231.10;2252.80
55365;DHT22;41245;45.384;20.390;2023-03-05T17:45:46;231.10;2252.80
55365;DHT22;41245;45.384;20.390;2023-03-05T17:48:12;230.80;2252.80
55365;DHT22;41245;45.384;20.390;2023-03-05T17:50:39;231.00;2252.80
55365;DHT22;41245;45.384;20.390;2023-03-05T17:53:05;231.10;2252.80
55365;DHT22;41245;45.384;20.390;2023-03-05T17:55:31;231.10;2252.80
55365;DHT22;41245;45.384;20.390;2023-03-05T17:57:57;231.10;2252.80
55365;DHT22;41245;45.384;20.390;2023-03-05T18:00:24;231.10;2252.80
55365;DHT22;41245;45.384;20.390;2023-03-05T18:02:50;231.10;2252.80
55365;DHT22;41245;45.384;20.390;2023-03-05T18:05:18;231.10;2252.80
55365;DHT22;41245;45.384;20.390;2023-03-05T18:07:44;231.10;2252.80
55365;DHT22;41245;45.384;20.390;2023-03-05T18:10:11;231.10;2252.80
55365;DHT22;41245;45.384;20.390;2023-03-05T18:12:36;231.10;2252.80
55365;DHT22;41245;45.384;20.390;2023-03-05T18:15:04;231.10;2252.80
55365;DHT22;41245;45.384;20.390;2023-03-05T18:17:30;231.10;2252.80
55365;DHT22;41245;45.384;20.390;2023-03-05T18:19:55;231.10;2252.80
55365;DHT22;41245;45.384;20.390;2023-03-05T18:22:21;231.10;2252.80
55365;DHT22;41245;45.384;20.390;2023-03-05T18:24:46;231.20;2252.80
55365;DHT22;41245;45.384;20.390;2023-03-05T18:27:12;231.20;2252.80
55365;DHT22;41245;45.384;20.390;2023-03-05T18:29:38;231.20;2252.80
55365;DHT22;41245;45.384;20.390;2023-03-05T18:32:04;231.20;2252.80
55365;DHT22;41245;45.384;20.390;2023-03-05T18:34:29;231.20;2252.80
55365;DHT22;41245;45.384;20.390;2023-03-05T18:36:55;256.00;2252.80
55365;DHT22;41245;45.384;20.390;2023-03-05T18:39:21;231.20;2252.80
55365;DHT22;41245;45.384;20.390;2023-03-05T18:41:47;231.20;2252.80
55365;DHT22;41245;45.384;20.390;2023-03-05T18:44:13;231.20;2252.80
55365;DHT22;41245;45.384;20.390;2023-03-05T18:46:39;231.20;2252.80
55365;DHT22;41245;45.384;20.390;2023-03-05T18:49:06;231.20;2252.80
55365;DHT22;41245;45.384;20.390;2023-03-05T18:51:33;231.20;2252.80
55365;DHT22;41245;45.384;20.390;2023-03-05T18:53:59;231.20;2252.80
55365;DHT22;41245;45.384;20.390;2023-03-05T18:56:24;231.20;2252.80
55365;DHT22;41245;45.384;20.390;2023-03-05T18:58:50;231.10;2252.80
55365;DHT22;41245;45.384;20.390;2023-03-05T19:01:17;231.20;2252.80
55365;DHT22;41245;45.384;20.390;2023-03-05T19:03:44;231.20;2252.80
55365;DHT22;41245;45.384;20.390;2023-03-05T19:06:09;231.20;2252.80